sensor_id;sensor_type;location;lat;lon;timestamp;P1;durP1;ratioP1;P2;durP2;ratioP2
20336;SDS011;10326;53.660;10.200;2024-03-25T00:01:41;10.52;;;2.60;;
20336;SDS011;10326;53.660;10.200;2024-03-25T00:04:09;6.60;;;2.67;;
20336;SDS011;10326;53.660;10.200;2024-03-25T00:06:36;6.57;;;2.97;;
20336;SDS011;10326;53.660;10.200;2024-03-25T00:09:03;5.20;;;2.60;;
20336;SDS011;10326;53.660;10.200;2024-03-25T00:11:30;7.88;;;2.83;;
20336;SDS011;10326;53.660;10.200;2024-03-25T00:13:57;5.78;;;2.55;;
20336;SDS011;10326;53.660;10.200;2024-03-25T00:16:23;5.22;;;2.58;;
20336;SDS011;10326;53.660;10.200;2024-03-25T00:18:50;7.60;;;2.97;;
20336;SDS011;10326;53.660;10.200;2024-03-25T00:21:16;5.47;;;3.13;;
20336;SDS011;10326;53.660;10.200;2024-03-25T00:23:44;6.00;;;2.50;;
20336;SDS011;10326;53.660;10.200;2024-03-25T00:26:10;7.18;;;2.70;;
20336;SDS011;10326;53.660;10.200;2024-03-25T00:28:38;5.68;;;2.47;;
20336;SDS011;10326;53.660;10.200;2024-03-25T00:31:04;4.18;;;2.58;;
20336;SDS011;10326;53.660;10.200;2024-03-25T00:33:31;10.57;;;3.33;;
20336;SDS011;10326;53.660;10.200;2024-03-25T00:35:57;5.80;;;2.60;;
20336;SDS011;10326;53.660;10.200;2024-03-25T00:38:25;6.63;;;3.17;;
20336;SDS011;10326;53.660;10.200;2024-03-25T00:40:52;5.32;;;2.50;;
20336;SDS011;10326;53.660;10.200;2024-03-25T00:43:19;4.72;;;2.30;;
20336;SDS011;10326;53.660;10.200;2024-03-25T00:45:45;6.57;;;2.85;;
20336;SDS011;10326;53.660;10.200;2024-03-25T00:48:12;5.70;;;2.67;;
20336;SDS011;10326;53.660;10.200;2024-03-25T00:50:38;6.32;;;3.00;;
20336;SDS011;10326;53.660;10.200;2024-03-25T00:53:05;5.82;;;2.55;;
20336;SDS011;10326;53.660;10.200;2024-03-25T00:55:32;4.25;;;2.67;;
20336;SDS011;10326;53.660;10.200;2024-03-25T00:58:01;6.93;;;2.63;;
20336;SDS011;10326;53.660;10.200;2024-03-25T01:00:29;6.00;;;3.15;;
20336;SDS011;10326;53.660;10.200;2024-03-25T01:02:56;5.22;;;2.92;;
20336;SDS011;10326;53.660;10.200;2024-03-25T01:05:22;6.75;;;3.03;;
20336;SDS011;10326;53.660;10.200;2024-03-25T01:07:49;7.32;;;3.00;;
20336;SDS011;10326;53.660;10.200;2024-03-25T01:10:15;6.28;;;3.00;;
20336;SDS011;10326;53.660;10.200;2024-03-25T01:12:42;5.80;;;2.58;;
20336;SDS011;10326;53.660;10.200;2024-03-25T01:15:09;6.13;;;2.88;;
20336;SDS011;10326;53.660;10.200;2024-03-25T01:17:37;5.97;;;3.00;;
20336;SDS011;10326;53.660;10.200;2024-03-25T01:20:03;7.60;;;2.95;;
20336;SDS011;10326;53.660;10.200;2024-03-25T01:22:31;7.80;;;3.08;;
20336;SDS011;10326;53.660;10.200;2024-03-25T01:24:57;5.57;;;3.15;;
20336;SDS011;10326;53.660;10.200;2024-03-25T01:27:24;5.03;;;3.03;;
20336;SDS011;10326;53.660;10.200;2024-03-25T01:29:50;5.03;;;3.20;;
20336;SDS011;10326;53.660;10.200;2024-03-25T01:32:18;5.72;;;3.47;;
20336;SDS011;10326;53.660;10.200;2024-03-25T01:34:44;8.25;;;3.20;;
20336;SDS011;10326;53.660;10.200;2024-03-25T01:37:11;5.22;;;3.55;;
20336;SDS011;10326;53.660;10.200;2024-03-25T01:39:37;6.60;;;3.67;;
20336;SDS011;10326;53.660;10.200;2024-03-25T01:42:04;6.25;;;3.20;;
20336;SDS011;10326;53.660;10.200;2024-03-25T01:44:31;7.28;;;3.75;;
20336;SDS011;10326;53.660;10.200;2024-03-25T01:46:58;6.03;;;3.25;;
20336;SDS011;10326;53.660;10.200;2024-03-25T01:49:25;10.68;;;3.42;;
20336;SDS011;10326;53.660;10.200;2024-03-25T01:51:52;6.20;;;3.50;;
20336;SDS011;10326;53.660;10.200;2024-03-25T01:54:19;7.43;;;4.10;;
20336;SDS011;10326;53.660;10.200;2024-03-25T01:56:46;5.38;;;3.40;;
20336;SDS011;10326;53.660;10.200;2024-03-25T01:59:13;7.32;;;3.63;;
20336;SDS011;10326;53.660;10.200;2024-03-25T02:01:42;6.70;;;3.97;;
20336;SDS011;10326;53.660;10.200;2024-03-25T02:04:10;7.93;;;3.60;;
20336;SDS011;10326;53.660;10.200;2024-03-25T02:06:40;6.68;;;3.65;;
20336;SDS011;10326;53.660;10.200;2024-03-25T02:09:08;7.97;;;3.72;;
20336;SDS011;10326;53.660;10.200;2024-03-25T02:11:37;6.93;;;3.50;;
20336;SDS011;10326;53.660;10.200;2024-03-25T02:14:04;4.03;;;2.97;;
20336;SDS011;10326;53.660;10.200;2024-03-25T02:16:32;5.57;;;3.40;;
20336;SDS011;10326;53.660;10.200;2024-03-25T02:18:58;6.32;;;4.03;;
20336;SDS011;10326;53.660;10.200;2024-03-25T02:21:25;8.27;;;3.35;;
20336;SDS011;10326;53.660;10.200;2024-03-25T02:23:53;4.85;;;3.45;;
20336;SDS011;10326;53.660;10.200;2024-03-25T02:26:24;5.80;;;3.22;;
20336;SDS011;10326;53.660;10.200;2024-03-25T02:28:50;6.68;;;3.35;;
20336;SDS011;10326;53.660;10.200;2024-03-25T02:31:17;6.45;;;3.70;;
20336;SDS011;10326;53.660;10.200;2024-03-25T02:33:43;5.82;;;3.40;;
20336;SDS011;10326;53.660;10.200;2024-03-25T02:36:10;6.68;;;3.42;;
20336;SDS011;10326;53.660;10.200;2024-03-25T02:38:36;5.30;;;3.75;;
20336;SDS011;10326;53.660;10.200;2024-03-25T02:41:03;5.53;;;3.40;;
20336;SDS011;10326;53.660;10.200;2024-03-25T02:43:31;6.07;;;3.47;;
20336;SDS011;10326;53.660;10.200;2024-03-25T02:45:58;4.78;;;3.33;;
20336;SDS011;10326;53.660;10.200;2024-03-25T02:48:24;4.95;;;3.38;;
20336;SDS011;10326;53.660;10.200;2024-03-25T02:50:51;5.82;;;3.78;;
20336;SDS011;10326;53.660;10.200;2024-03-25T02:53:17;4.03;;;2.67;;
20336;SDS011;10326;53.660;10.200;2024-03-25T02:55:44;5.38;;;2.83;;
20336;SDS011;10326;53.660;10.200;2024-03-25T02:58:11;4.82;;;3.13;;
20336;SDS011;10326;53.660;10.200;2024-03-25T03:00:40;5.18;;;2.80;;
20336;SDS011;10326;53.660;10.200;2024-03-25T03:03:06;5.72;;;2.83;;
20336;SDS011;10326;53.660;10.200;2024-03-25T03:05:33;5.93;;;2.80;;
20336;SDS011;10326;53.660;10.200;2024-03-25T03:08:00;5.50;;;2.60;;
20336;SDS011;10326;53.660;10.200;2024-03-25T03:10:27;5.00;;;2.60;;
20336;SDS011;10326;53.660;10.200;2024-03-25T03:12:53;4.63;;;2.90;;
20336;SDS011;10326;53.660;10.200;2024-03-25T03:15:20;4.28;;;2.63;;
20336;SDS011;10326;53.660;10.200;2024-03-25T03:17:47;4.97;;;2.28;;
20336;SDS011;10326;53.660;10.200;2024-03-25T03:20:14;5.63;;;2.92;;
20336;SDS011;10326;53.660;10.200;2024-03-25T03:22:40;3.20;;;1.98;;
20336;SDS011;10326;53.660;10.200;2024-03-25T03:25:07;4.57;;;2.10;;
20336;SDS011;10326;53.660;10.200;2024-03-25T03:27:33;2.70;;;1.60;;
20336;SDS011;10326;53.660;10.200;2024-03-25T03:30:00;3.40;;;1.90;;
20336;SDS011;10326;53.660;10.200;2024-03-25T03:32:26;3.33;;;1.80;;
20336;SDS011;10326;53.660;10.200;2024-03-25T03:34:54;2.72;;;1.70;;
20336;SDS011;10326;53.660;10.200;2024-03-25T03:37:20;2.47;;;1.67;;
20336;SDS011;10326;53.660;10.200;2024-03-25T03:39:47;4.68;;;1.90;;
20336;SDS011;10326;53.660;10.200;2024-03-25T03:42:13;3.22;;;2.00;;
20336;SDS011;10326;53.660;10.200;2024-03-25T03:44:40;4.38;;;2.38;;
20336;SDS011;10326;53.660;10.200;2024-03-25T03:47:06;5.75;;;2.45;;
20336;SDS011;10326;53.660;10.200;2024-03-25T03:49:33;3.50;;;1.77;;
20336;SDS011;10326;53.660;10.200;2024-03-25T03:52:01;8.25;;;2.22;;
20336;SDS011;10326;53.660;10.200;2024-03-25T03:54:28;4.90;;;2.15;;
20336;SDS011;10326;53.660;10.200;2024-03-25T03:56:54;5.55;;;2.13;;
20336;SDS011;10326;53.660;10.200;2024-03-25T03:59:21;4.22;;;2.15;;
20336;SDS011;10326;53.660;10.200;2024-03-25T04:01:47;5.63;;;2.13;;
20336;SDS011;10326;53.660;10.200;2024-03-25T04:04:15;5.40;;;2.28;;
20336;SDS011;10326;53.660;10.200;2024-03-25T04:06:41;5.53;;;2.38;;
20336;SDS011;10326;53.660;10.200;2024-03-25T04:09:09;4.45;;;2.25;;
20336;SDS011;10326;53.660;10.200;2024-03-25T04:11:35;5.13;;;2.25;;
20336;SDS011;10326;53.660;10.200;2024-03-25T04:14:02;4.65;;;2.30;;
20336;SDS011;10326;53.660;10.200;2024-03-25T04:16:28;5.25;;;2.30;;
20336;SDS011;10326;53.660;10.200;2024-03-25T04:18:56;7.78;;;2.30;;
20336;SDS011;10326;53.660;10.200;2024-03-25T04:21:22;5.90;;;2.00;;
20336;SDS011;10326;53.660;10.200;2024-03-25T04:23:50;6.65;;;2.00;;
20336;SDS011;10326;53.660;10.200;2024-03-25T04:26:17;5.63;;;2.10;;
20336;SDS011;10326;53.660;10.200;2024-03-25T04:28:44;4.40;;;1.75;;
20336;SDS011;10326;53.660;10.200;2024-03-25T04:31:10;4.30;;;2.00;;
20336;SDS011;10326;53.660;10.200;2024-03-25T04:33:37;5.22;;;2.20;;
20336;SDS011;10326;53.660;10.200;2024-03-25T04:36:03;5.53;;;2.50;;
20336;SDS011;10326;53.660;10.200;2024-03-25T04:38:30;4.38;;;2.17;;
20336;SDS011;10326;53.660;10.200;2024-03-25T04:40:56;5.70;;;2.08;;
20336;SDS011;10326;53.660;10.200;2024-03-25T04:43:24;5.15;;;1.67;;
20336;SDS011;10326;53.660;10.200;2024-03-25T04:45:50;5.30;;;2.13;;
20336;SDS011;10326;53.660;10.200;2024-03-25T04:48:16;5.63;;;2.22;;
20336;SDS011;10326;53.660;10.200;2024-03-25T04:50:42;4.93;;;2.00;;
20336;SDS011;10326;53.660;10.200;2024-03-25T04:53:33;6.32;;;2.20;;
20336;SDS011;10326;53.660;10.200;2024-03-25T04:55:59;5.53;;;2.00;;
20336;SDS011;10326;53.660;10.200;2024-03-25T04:58:26;3.60;;;2.10;;
20336;SDS011;10326;53.660;10.200;2024-03-25T05:00:52;5.47;;;1.67;;
20336;SDS011;10326;53.660;10.200;2024-03-25T05:03:18;3.75;;;2.00;;
20336;SDS011;10326;53.660;10.200;2024-03-25T05:05:44;4.18;;;1.80;;
20336;SDS011;10326;53.660;10.200;2024-03-25T05:08:10;3.13;;;1.75;;
20336;SDS011;10326;53.660;10.200;2024-03-25T05:10:36;4.68;;;2.00;;
20336;SDS011;10326;53.660;10.200;2024-03-25T05:13:02;4.22;;;1.80;;
20336;SDS011;10326;53.660;10.200;2024-03-25T05:15:30;6.32;;;2.33;;
20336;SDS011;10326;53.660;10.200;2024-03-25T05:17:56;2.85;;;1.65;;
20336;SDS011;10326;53.660;10.200;2024-03-25T05:20:22;4.20;;;1.83;;
20336;SDS011;10326;53.660;10.200;2024-03-25T05:22:48;3.90;;;1.67;;
20336;SDS011;10326;53.660;10.200;2024-03-25T05:25:14;3.13;;;1.50;;
20336;SDS011;10326;53.660;10.200;2024-03-25T05:27:40;3.63;;;1.63;;
20336;SDS011;10326;53.660;10.200;2024-03-25T05:30:06;4.53;;;1.50;;
20336;SDS011;10326;53.660;10.200;2024-03-25T05:32:34;2.17;;;1.42;;
20336;SDS011;10326;53.660;10.200;2024-03-25T05:35:01;2.38;;;1.48;;
20336;SDS011;10326;53.660;10.200;2024-03-25T05:37:27;2.60;;;1.17;;
20336;SDS011;10326;53.660;10.200;2024-03-25T05:39:53;2.75;;;1.63;;
20336;SDS011;10326;53.660;10.200;2024-03-25T05:42:19;2.78;;;1.30;;
20336;SDS011;10326;53.660;10.200;2024-03-25T05:44:45;2.97;;;1.23;;
20336;SDS011;10326;53.660;10.200;2024-03-25T05:47:11;1.42;;;1.02;;
20336;SDS011;10326;53.660;10.200;2024-03-25T05:49:42;2.08;;;1.33;;
20336;SDS011;10326;53.660;10.200;2024-03-25T05:52:12;3.17;;;1.30;;
20336;SDS011;10326;53.660;10.200;2024-03-25T05:54:38;3.00;;;1.30;;
20336;SDS011;10326;53.660;10.200;2024-03-25T05:57:04;2.88;;;1.40;;
20336;SDS011;10326;53.660;10.200;2024-03-25T05:59:30;2.25;;;1.38;;
20336;SDS011;10326;53.660;10.200;2024-03-25T06:01:56;1.35;;;1.00;;
20336;SDS011;10326;53.660;10.200;2024-03-25T06:04:22;2.85;;;1.40;;
20336;SDS011;10326;53.660;10.200;2024-03-25T06:06:49;2.00;;;1.33;;
20336;SDS011;10326;53.660;10.200;2024-03-25T06:09:15;2.15;;;1.02;;
20336;SDS011;10326;53.660;10.200;2024-03-25T06:11:41;2.45;;;1.23;;
20336;SDS011;10326;53.660;10.200;2024-03-25T06:14:07;1.85;;;1.33;;
20336;SDS011;10326;53.660;10.200;2024-03-25T06:16:33;2.47;;;1.40;;
20336;SDS011;10326;53.660;10.200;2024-03-25T06:18:59;2.08;;;1.30;;
20336;SDS011;10326;53.660;10.200;2024-03-25T06:21:25;2.58;;;1.35;;
20336;SDS011;10326;53.660;10.200;2024-03-25T06:23:53;1.33;;;1.10;;
20336;SDS011;10326;53.660;10.200;2024-03-25T06:26:19;1.95;;;1.33;;
20336;SDS011;10326;53.660;10.200;2024-03-25T06:28:45;3.20;;;1.38;;
20336;SDS011;10326;53.660;10.200;2024-03-25T06:31:11;1.92;;;1.30;;
20336;SDS011;10326;53.660;10.200;2024-03-25T06:33:55;1.75;;;1.30;;
20336;SDS011;10326;53.660;10.200;2024-03-25T06:36:40;2.15;;;1.30;;
20336;SDS011;10326;53.660;10.200;2024-03-25T06:39:07;1.95;;;1.23;;
20336;SDS011;10326;53.660;10.200;2024-03-25T06:41:33;2.35;;;1.35;;
20336;SDS011;10326;53.660;10.200;2024-03-25T06:43:59;1.60;;;1.13;;
20336;SDS011;10326;53.660;10.200;2024-03-25T06:46:25;3.00;;;1.65;;
20336;SDS011;10326;53.660;10.200;2024-03-25T06:48:51;1.98;;;1.60;;
20336;SDS011;10326;53.660;10.200;2024-03-25T06:51:17;3.40;;;1.73;;
20336;SDS011;10326;53.660;10.200;2024-03-25T06:53:43;2.78;;;1.40;;
20336;SDS011;10326;53.660;10.200;2024-03-25T06:56:12;2.30;;;1.80;;
20336;SDS011;10326;53.660;10.200;2024-03-25T06:58:38;2.80;;;1.92;;
20336;SDS011;10326;53.660;10.200;2024-03-25T07:01:04;3.97;;;2.20;;
20336;SDS011;10326;53.660;10.200;2024-03-25T07:03:32;3.72;;;2.22;;
20336;SDS011;10326;53.660;10.200;2024-03-25T07:05:59;3.67;;;2.70;;
20336;SDS011;10326;53.660;10.200;2024-03-25T07:08:26;2.78;;;1.92;;
20336;SDS011;10326;53.660;10.200;2024-03-25T07:10:52;2.30;;;1.92;;
20336;SDS011;10326;53.660;10.200;2024-03-25T07:13:21;4.82;;;1.90;;
20336;SDS011;10326;53.660;10.200;2024-03-25T07:15:48;4.50;;;2.40;;
20336;SDS011;10326;53.660;10.200;2024-03-25T07:18:16;4.50;;;2.28;;
20336;SDS011;10326;53.660;10.200;2024-03-25T07:20:42;3.95;;;2.38;;
20336;SDS011;10326;53.660;10.200;2024-03-25T07:23:09;3.83;;;2.40;;
20336;SDS011;10326;53.660;10.200;2024-03-25T07:25:35;2.70;;;1.92;;
20336;SDS011;10326;53.660;10.200;2024-03-25T07:28:02;2.88;;;2.10;;
20336;SDS011;10326;53.660;10.200;2024-03-25T07:30:30;2.72;;;1.80;;
20336;SDS011;10326;53.660;10.200;2024-03-25T07:32:56;3.38;;;2.35;;
20336;SDS011;10326;53.660;10.200;2024-03-25T07:35:23;4.47;;;2.50;;
20336;SDS011;10326;53.660;10.200;2024-03-25T07:37:49;3.95;;;2.70;;
20336;SDS011;10326;53.660;10.200;2024-03-25T07:40:16;4.55;;;2.65;;
20336;SDS011;10326;53.660;10.200;2024-03-25T07:42:42;6.07;;;2.70;;
20336;SDS011;10326;53.660;10.200;2024-03-25T07:45:08;4.20;;;2.58;;
20336;SDS011;10326;53.660;10.200;2024-03-25T07:47:36;3.53;;;2.33;;
20336;SDS011;10326;53.660;10.200;2024-03-25T07:50:02;3.72;;;2.92;;
20336;SDS011;10326;53.660;10.200;2024-03-25T07:52:29;6.72;;;3.13;;
20336;SDS011;10326;53.660;10.200;2024-03-25T07:54:55;4.15;;;2.80;;
20336;SDS011;10326;53.660;10.200;2024-03-25T07:57:21;4.57;;;2.70;;
20336;SDS011;10326;53.660;10.200;2024-03-25T07:59:47;3.53;;;2.20;;
20336;SDS011;10326;53.660;10.200;2024-03-25T08:02:13;5.55;;;2.28;;
20336;SDS011;10326;53.660;10.200;2024-03-25T08:04:41;5.80;;;2.50;;
20336;SDS011;10326;53.660;10.200;2024-03-25T08:07:07;4.45;;;2.78;;
20336;SDS011;10326;53.660;10.200;2024-03-25T08:09:33;4.93;;;2.65;;
20336;SDS011;10326;53.660;10.200;2024-03-25T08:11:59;6.75;;;2.50;;
20336;SDS011;10326;53.660;10.200;2024-03-25T08:14:25;4.30;;;2.30;;
20336;SDS011;10326;53.660;10.200;2024-03-25T08:16:51;6.13;;;2.60;;
20336;SDS011;10326;53.660;10.200;2024-03-25T08:19:17;4.25;;;2.65;;
20336;SDS011;10326;53.660;10.200;2024-03-25T08:21:45;6.05;;;2.60;;
20336;SDS011;10326;53.660;10.200;2024-03-25T08:24:13;4.10;;;2.28;;
20336;SDS011;10326;53.660;10.200;2024-03-25T08:26:39;4.68;;;2.33;;
20336;SDS011;10326;53.660;10.200;2024-03-25T08:29:05;5.82;;;2.10;;
20336;SDS011;10326;53.660;10.200;2024-03-25T08:31:31;5.10;;;1.80;;
20336;SDS011;10326;53.660;10.200;2024-03-25T08:33:57;6.80;;;2.40;;
20336;SDS011;10326;53.660;10.200;2024-03-25T08:36:23;4.63;;;1.73;;
20336;SDS011;10326;53.660;10.200;2024-03-25T08:38:51;5.43;;;2.20;;
20336;SDS011;10326;53.660;10.200;2024-03-25T08:41:17;5.85;;;2.10;;
20336;SDS011;10326;53.660;10.200;2024-03-25T08:43:43;3.70;;;2.35;;
20336;SDS011;10326;53.660;10.200;2024-03-25T08:46:09;5.53;;;1.85;;
20336;SDS011;10326;53.660;10.200;2024-03-25T08:48:35;5.30;;;2.17;;
20336;SDS011;10326;53.660;10.200;2024-03-25T08:51:01;5.22;;;2.05;;
20336;SDS011;10326;53.660;10.200;2024-03-25T08:53:27;5.00;;;2.20;;
20336;SDS011;10326;53.660;10.200;2024-03-25T08:55:54;5.25;;;2.30;;
20336;SDS011;10326;53.660;10.200;2024-03-25T08:58:20;4.13;;;2.25;;
20336;SDS011;10326;53.660;10.200;2024-03-25T09:00:46;6.70;;;2.17;;
20336;SDS011;10326;53.660;10.200;2024-03-25T09:03:12;8.13;;;2.47;;
20336;SDS011;10326;53.660;10.200;2024-03-25T09:05:39;4.65;;;2.15;;
20336;SDS011;10326;53.660;10.200;2024-03-25T09:08:08;4.82;;;2.67;;
20336;SDS011;10326;53.660;10.200;2024-03-25T09:10:34;5.13;;;2.67;;
20336;SDS011;10326;53.660;10.200;2024-03-25T09:13:20;8.13;;;2.33;;
20336;SDS011;10326;53.660;10.200;2024-03-25T09:15:46;7.13;;;2.50;;
20336;SDS011;10326;53.660;10.200;2024-03-25T09:18:12;6.57;;;2.95;;
20336;SDS011;10326;53.660;10.200;2024-03-25T09:20:39;5.13;;;2.70;;
20336;SDS011;10326;53.660;10.200;2024-03-25T09:23:05;8.18;;;3.08;;
20336;SDS011;10326;53.660;10.200;2024-03-25T09:25:31;5.28;;;2.58;;
20336;SDS011;10326;53.660;10.200;2024-03-25T09:27:57;8.40;;;2.50;;
20336;SDS011;10326;53.660;10.200;2024-03-25T09:30:25;3.95;;;2.45;;
20336;SDS011;10326;53.660;10.200;2024-03-25T09:32:51;4.47;;;2.05;;
20336;SDS011;10326;53.660;10.200;2024-03-25T09:35:17;3.85;;;1.70;;
20336;SDS011;10326;53.660;10.200;2024-03-25T09:37:43;5.20;;;2.05;;
20336;SDS011;10326;53.660;10.200;2024-03-25T09:40:10;7.10;;;1.63;;
20336;SDS011;10326;53.660;10.200;2024-03-25T09:42:40;3.47;;;1.77;;
20336;SDS011;10326;53.660;10.200;2024-03-25T09:45:12;4.75;;;1.70;;
20336;SDS011;10326;53.660;10.200;2024-03-25T09:47:44;4.15;;;1.75;;
20336;SDS011;10326;53.660;10.200;2024-03-25T09:50:12;7.05;;;2.25;;
20336;SDS011;10326;53.660;10.200;2024-03-25T09:52:39;4.40;;;1.55;;
20336;SDS011;10326;53.660;10.200;2024-03-25T09:55:05;5.68;;;2.08;;
20336;SDS011;10326;53.660;10.200;2024-03-25T09:57:32;5.95;;;2.00;;
20336;SDS011;10326;53.660;10.200;2024-03-25T09:59:59;6.85;;;2.20;;
20336;SDS011;10326;53.660;10.200;2024-03-25T10:02:26;5.57;;;2.90;;
20336;SDS011;10326;53.660;10.200;2024-03-25T10:12:26;4.90;;;1.95;;
20336;SDS011;10326;53.660;10.200;2024-03-25T10:25:51;6.55;;;2.17;;
20336;SDS011;10326;53.660;10.200;2024-03-25T10:28:18;7.47;;;2.53;;
20336;SDS011;10326;53.660;10.200;2024-03-25T10:30:44;6.32;;;2.10;;
20336;SDS011;10326;53.660;10.200;2024-03-25T10:33:10;7.70;;;2.30;;
20336;SDS011;10326;53.660;10.200;2024-03-25T10:35:37;4.60;;;2.40;;
20336;SDS011;10326;53.660;10.200;2024-03-25T10:38:06;3.97;;;1.85;;
20336;SDS011;10326;53.660;10.200;2024-03-25T10:40:35;6.30;;;2.10;;
20336;SDS011;10326;53.660;10.200;2024-03-25T10:43:04;6.55;;;1.88;;
20336;SDS011;10326;53.660;10.200;2024-03-25T10:45:33;6.72;;;2.17;;
20336;SDS011;10326;53.660;10.200;2024-03-25T10:48:02;8.40;;;1.77;;
20336;SDS011;10326;53.660;10.200;2024-03-25T10:50:34;5.20;;;2.00;;
20336;SDS011;10326;53.660;10.200;2024-03-25T10:53:00;5.75;;;2.15;;
20336;SDS011;10326;53.660;10.200;2024-03-25T10:55:30;5.45;;;2.00;;
20336;SDS011;10326;53.660;10.200;2024-03-25T10:57:57;5.78;;;1.98;;
20336;SDS011;10326;53.660;10.200;2024-03-25T11:00:25;5.63;;;2.17;;
20336;SDS011;10326;53.660;10.200;2024-03-25T11:02:51;5.50;;;2.30;;
20336;SDS011;10326;53.660;10.200;2024-03-25T11:05:18;4.13;;;2.10;;
20336;SDS011;10326;53.660;10.200;2024-03-25T11:07:44;7.47;;;2.17;;
20336;SDS011;10326;53.660;10.200;2024-03-25T11:10:10;6.03;;;2.20;;
20336;SDS011;10326;53.660;10.200;2024-03-25T11:12:37;5.25;;;2.05;;
20336;SDS011;10326;53.660;10.200;2024-03-25T11:15:06;5.95;;;2.15;;
20336;SDS011;10326;53.660;10.200;2024-03-25T11:17:35;4.53;;;1.73;;
20336;SDS011;10326;53.660;10.200;2024-03-25T11:20:11;5.63;;;1.95;;
20336;SDS011;10326;53.660;10.200;2024-03-25T11:22:47;4.32;;;1.45;;
20336;SDS011;10326;53.660;10.200;2024-03-25T11:25:14;2.55;;;1.35;;
20336;SDS011;10326;53.660;10.200;2024-03-25T11:27:42;3.30;;;1.60;;
20336;SDS011;10326;53.660;10.200;2024-03-25T11:30:09;4.22;;;1.80;;
20336;SDS011;10326;53.660;10.200;2024-03-25T11:32:46;6.30;;;1.50;;
20336;SDS011;10326;53.660;10.200;2024-03-25T11:35:17;5.15;;;1.70;;
20336;SDS011;10326;53.660;10.200;2024-03-25T11:37:44;4.10;;;1.60;;
20336;SDS011;10326;53.660;10.200;2024-03-25T11:40:11;4.25;;;1.65;;
20336;SDS011;10326;53.660;10.200;2024-03-25T11:42:39;4.20;;;1.35;;
20336;SDS011;10326;53.660;10.200;2024-03-25T11:45:05;4.50;;;1.75;;
20336;SDS011;10326;53.660;10.200;2024-03-25T11:47:34;4.93;;;1.60;;
20336;SDS011;10326;53.660;10.200;2024-03-25T11:50:01;5.68;;;2.15;;
20336;SDS011;10326;53.660;10.200;2024-03-25T11:52:34;4.50;;;1.50;;
20336;SDS011;10326;53.660;10.200;2024-03-25T11:55:00;3.83;;;1.65;;
20336;SDS011;10326;53.660;10.200;2024-03-25T11:57:27;4.80;;;1.30;;
20336;SDS011;10326;53.660;10.200;2024-03-25T11:59:53;3.22;;;1.20;;
20336;SDS011;10326;53.660;10.200;2024-03-25T12:02:20;3.63;;;1.17;;
20336;SDS011;10326;53.660;10.200;2024-03-25T12:04:47;3.00;;;1.38;;
20336;SDS011;10326;53.660;10.200;2024-03-25T12:07:14;4.10;;;1.58;;
20336;SDS011;10326;53.660;10.200;2024-03-25T12:09:41;5.25;;;1.88;;
20336;SDS011;10326;53.660;10.200;2024-03-25T12:12:26;3.83;;;1.20;;
20336;SDS011;10326;53.660;10.200;2024-03-25T12:14:53;4.28;;;1.45;;
20336;SDS011;10326;53.660;10.200;2024-03-25T12:17:20;2.97;;;1.45;;
20336;SDS011;10326;53.660;10.200;2024-03-25T12:19:58;4.90;;;1.63;;
20336;SDS011;10326;53.660;10.200;2024-03-25T12:22:27;3.92;;;1.38;;
20336;SDS011;10326;53.660;10.200;2024-03-25T12:24:53;5.20;;;1.50;;
20336;SDS011;10326;53.660;10.200;2024-03-25T12:27:24;3.20;;;1.30;;
20336;SDS011;10326;53.660;10.200;2024-03-25T12:29:57;3.72;;;1.50;;
20336;SDS011;10326;53.660;10.200;2024-03-25T12:32:31;3.20;;;1.70;;
20336;SDS011;10326;53.660;10.200;2024-03-25T12:35:01;4.65;;;1.40;;
20336;SDS011;10326;53.660;10.200;2024-03-25T12:37:30;2.55;;;1.63;;
20336;SDS011;10326;53.660;10.200;2024-03-25T12:39:56;3.22;;;1.20;;
20336;SDS011;10326;53.660;10.200;2024-03-25T12:42:23;2.63;;;1.30;;
20336;SDS011;10326;53.660;10.200;2024-03-25T12:44:50;2.80;;;1.10;;
20336;SDS011;10326;53.660;10.200;2024-03-25T12:47:16;2.65;;;1.10;;
20336;SDS011;10326;53.660;10.200;2024-03-25T12:49:42;3.88;;;1.65;;
20336;SDS011;10326;53.660;10.200;2024-03-25T12:52:08;5.90;;;1.33;;
20336;SDS011;10326;53.660;10.200;2024-03-25T12:54:36;3.88;;;1.42;;
20336;SDS011;10326;53.660;10.200;2024-03-25T12:57:03;3.00;;;1.38;;
20336;SDS011;10326;53.660;10.200;2024-03-25T12:59:30;3.75;;;1.60;;
20336;SDS011;10326;53.660;10.200;2024-03-25T13:01:56;3.83;;;1.50;;
20336;SDS011;10326;53.660;10.200;2024-03-25T13:04:22;3.92;;;1.50;;
20336;SDS011;10326;53.660;10.200;2024-03-25T13:06:48;2.63;;;1.30;;
20336;SDS011;10326;53.660;10.200;2024-03-25T13:09:14;4.15;;;1.27;;
20336;SDS011;10326;53.660;10.200;2024-03-25T13:11:42;5.20;;;1.42;;
20336;SDS011;10326;53.660;10.200;2024-03-25T13:14:10;3.88;;;1.30;;
20336;SDS011;10326;53.660;10.200;2024-03-25T13:16:37;3.85;;;1.40;;
20336;SDS011;10326;53.660;10.200;2024-03-25T13:19:03;3.72;;;1.30;;
20336;SDS011;10326;53.660;10.200;2024-03-25T13:21:29;3.10;;;1.00;;
20336;SDS011;10326;53.660;10.200;2024-03-25T13:23:55;8.40;;;2.13;;
20336;SDS011;10326;53.660;10.200;2024-03-25T13:26:22;6.72;;;2.00;;
20336;SDS011;10326;53.660;10.200;2024-03-25T13:28:49;4.75;;;1.73;;
20336;SDS011;10326;53.660;10.200;2024-03-25T13:31:15;5.85;;;2.00;;
20336;SDS011;10326;53.660;10.200;2024-03-25T13:33:41;6.82;;;1.88;;
20336;SDS011;10326;53.660;10.200;2024-03-25T13:36:07;7.20;;;2.22;;
20336;SDS011;10326;53.660;10.200;2024-03-25T13:38:33;4.43;;;1.60;;
20336;SDS011;10326;53.660;10.200;2024-03-25T13:41:00;4.30;;;1.52;;
20336;SDS011;10326;53.660;10.200;2024-03-25T13:43:27;3.35;;;1.00;;
20336;SDS011;10326;53.660;10.200;2024-03-25T13:45:54;3.03;;;1.40;;
20336;SDS011;10326;53.660;10.200;2024-03-25T13:48:20;4.18;;;1.38;;
20336;SDS011;10326;53.660;10.200;2024-03-25T13:50:47;4.32;;;1.52;;
20336;SDS011;10326;53.660;10.200;2024-03-25T13:53:13;4.20;;;1.10;;
20336;SDS011;10326;53.660;10.200;2024-03-25T13:55:40;4.13;;;1.38;;
20336;SDS011;10326;53.660;10.200;2024-03-25T13:58:06;3.72;;;1.38;;
20336;SDS011;10326;53.660;10.200;2024-03-25T14:00:32;4.22;;;1.25;;
20336;SDS011;10326;53.660;10.200;2024-03-25T14:03:00;3.33;;;1.40;;
20336;SDS011;10326;53.660;10.200;2024-03-25T14:05:26;5.05;;;1.67;;
20336;SDS011;10326;53.660;10.200;2024-03-25T14:07:52;5.93;;;1.73;;
20336;SDS011;10326;53.660;10.200;2024-03-25T14:10:18;5.90;;;1.77;;
20336;SDS011;10326;53.660;10.200;2024-03-25T14:12:44;2.60;;;1.20;;
20336;SDS011;10326;53.660;10.200;2024-03-25T14:15:10;2.95;;;1.38;;
20336;SDS011;10326;53.660;10.200;2024-03-25T14:17:37;5.30;;;1.30;;
20336;SDS011;10326;53.660;10.200;2024-03-25T14:20:05;4.22;;;1.40;;
20336;SDS011;10326;53.660;10.200;2024-03-25T14:22:33;4.03;;;1.58;;
20336;SDS011;10326;53.660;10.200;2024-03-25T14:24:59;4.28;;;1.40;;
20336;SDS011;10326;53.660;10.200;2024-03-25T14:27:25;5.40;;;1.52;;
20336;SDS011;10326;53.660;10.200;2024-03-25T14:29:51;4.70;;;1.42;;
20336;SDS011;10326;53.660;10.200;2024-03-25T14:32:18;2.83;;;1.23;;
20336;SDS011;10326;53.660;10.200;2024-03-25T14:34:45;5.15;;;1.45;;
20336;SDS011;10326;53.660;10.200;2024-03-25T14:37:13;4.65;;;1.60;;
20336;SDS011;10326;53.660;10.200;2024-03-25T14:39:40;4.57;;;1.70;;
20336;SDS011;10326;53.660;10.200;2024-03-25T14:42:07;3.95;;;1.50;;
20336;SDS011;10326;53.660;10.200;2024-03-25T14:44:34;3.83;;;1.70;;
20336;SDS011;10326;53.660;10.200;2024-03-25T14:47:01;4.05;;;1.60;;
20336;SDS011;10326;53.660;10.200;2024-03-25T14:49:27;4.15;;;1.70;;
20336;SDS011;10326;53.660;10.200;2024-03-25T14:51:53;6.03;;;1.60;;